Time;durP1;ratioP1;P1;durP2;ratioP2;P2;SDS_P1;SDS_P2;PMS_P1;PMS_P2;Temp;Humidity;BMP_temperature;BMP_pressure;BME280_temperature;BME280_humidity;BME280_pressure;Samples;Min_cycle;Max_cycle;Signal;HPM_P1;HPM_P2
2021/04/12 00:02:39;;;;;;;0.60;0.60;;;;;;;17.76;33.14;96557.63;5069483;28;20040;-59
2021/04/12 00:05:28;;;;;;;0.50;0.50;;;;;;;17.74;33.17;96554.34;5060295;28;20062;-59
2021/04/12 00:08:07;;;;;;;0.60;0.60;;;;;;;17.73;32.90;96554.59;5067201;28;20044;-59
2021/04/12 00:10:59;;;;;;;0.60;0.60;;;;;;;17.71;33.18;96563.00;5067315;28;20052;-57
2021/04/12 00:13:28;;;;;;;0.50;0.50;;;;;;;17.70;32.66;96558.66;5067119;28;20046;-59
2021/04/12 00:16:09;;;;;;;0.50;0.50;;;;;;;17.70;32.93;96557.84;5067148;28;20063;-59
2021/04/12 00:18:51;;;;;;;0.40;0.40;;;;;;;17.68;33.02;96555.41;5052648;28;20541;-59
2021/04/12 00:21:20;;;;;;;0.50;0.50;;;;;;;17.67;32.84;96551.03;5052904;28;20093;-59
2021/04/12 00:23:48;;;;;;;0.47;0.47;;;;;;;17.66;32.84;96556.75;5051281;28;20044;-59
2021/04/12 00:26:22;;;;;;;0.50;0.50;;;;;;;17.64;32.75;96551.56;5066984;28;20639;-59
2021/04/12 00:28:55;;;;;;;0.50;0.50;;;;;;;17.63;32.79;96558.06;5052420;28;20067;-59
2021/04/12 00:31:30;;;;;;;0.50;0.50;;;;;;;17.61;32.71;96552.06;5050967;28;20052;-60
2021/04/12 00:34:30;;;;;;;0.60;0.60;;;;;;;17.60;32.88;96561.28;5050574;28;20154;-59
2021/04/12 00:37:00;;;;;;;0.43;0.32;;;;;;;17.59;32.66;96562.34;5066899;28;20674;-59
2021/04/12 00:39:46;;;;;;;0.30;0.30;;;;;;;17.57;32.92;96553.69;5066640;28;20059;-59
2021/04/12 00:42:45;;;;;;;0.40;0.40;;;;;;;17.54;32.41;96555.00;5051119;28;20081;-59
2021/04/12 00:45:10;;;;;;;0.40;0.40;;;;;;;17.54;32.54;96557.72;5052361;28;20160;-59
2021/04/12 00:47:57;;;;;;;0.32;0.30;;;;;;;17.52;32.47;96559.88;5066572;28;20086;-58
2021/04/12 00:50:39;;;;;;;0.40;0.40;;;;;;;17.51;32.64;96558.25;5078462;28;20197;-59
2021/04/12 00:53:23;;;;;;;0.40;0.40;;;;;;;17.50;32.75;96558.50;5086833;28;20097;-59
2021/04/12 00:56:04;;;;;;;0.22;0.22;;;;;;;17.47;32.60;96559.03;5088275;28;20047;-60
2021/04/12 00:58:45;;;;;;;0.40;0.40;;;;;;;17.47;32.43;96561.75;5086788;28;20135;-59
2021/04/12 01:01:10;;;;;;;0.20;0.20;;;;;;;17.45;32.65;96556.59;5085629;28;20538;-59
2021/04/12 01:03:58;;;;;;;0.30;0.30;;;;;;;17.42;32.72;96548.97;5086418;28;20043;-59
2021/04/12 01:07:04;;;;;;;0.50;0.50;;;;;;;17.41;32.39;96550.88;5086601;28;20463;-59
2021/04/12 01:09:48;;;;;;;0.40;0.40;;;;;;;17.41;32.45;96555.47;5024797;28;20053;-60
2021/04/12 01:12:48;;;;;;;0.30;0.30;;;;;;;17.38;32.21;96550.56;5084494;28;20099;-59
2021/04/12 01:16:11;;;;;;;0.30;0.30;;;;;;;17.36;32.68;96548.13;5071902;28;20116;-60
2021/04/12 01:19:11;;;;;;;0.30;0.30;;;;;;;17.34;32.32;96544.88;5023751;28;20064;-60
2021/04/12 01:22:10;;;;;;;0.30;0.30;;;;;;;17.33;32.44;96543.22;4999102;28;20053;-60
2021/04/12 01:25:17;;;;;;;0.10;0.10;;;;;;;17.32;32.49;96551.63;5086554;28;20058;-59
2021/04/12 01:28:00;;;;;;;0.30;0.30;;;;;;;17.30;32.32;96549.16;5087030;28;20048;-60
2021/04/12 01:30:44;;;;;;;1.73;0.30;;;;;;;17.29;32.20;96549.41;5045567;28;20064;-60
2021/04/12 01:33:37;;;;;;;0.20;0.20;;;;;;;17.27;32.44;96563.19;5048544;28;20160;-59
2021/04/12 01:36:34;;;;;;;0.20;0.20;;;;;;;17.26;32.52;96553.47;5045730;28;20143;-61
2021/04/12 01:39:29;;;;;;;0.22;0.22;;;;;;;17.24;32.42;96555.59;5046534;28;20698;-62
2021/04/12 01:42:09;;;;;;;0.30;0.30;;;;;;;17.24;32.22;96560.22;5045705;28;20045;-62
2021/04/12 01:44:59;;;;;;;0.20;0.20;;;;;;;17.22;32.33;96555.84;5045256;28;20076;-61
2021/04/12 01:47:54;;;;;;;0.22;0.22;;;;;;;17.20;32.38;96551.78;5030110;28;20112;-61
2021/04/12 01:50:38;;;;;;;0.40;0.40;;;;;;;17.20;32.44;96559.91;5066267;28;20044;-62
2021/04/12 01:53:25;;;;;;;0.30;0.30;;;;;;;17.19;32.35;96563.66;5086629;28;20118;-62
2021/04/12 01:56:09;;;;;;;0.20;0.20;;;;;;;17.17;32.32;96558.53;5086198;28;20063;-61
2021/04/12 01:58:59;;;;;;;0.30;0.30;;;;;;;17.16;32.37;96559.59;5084652;28;20070;-62
2021/04/12 02:02:02;;;;;;;0.20;0.20;;;;;;;17.14;32.57;96564.44;5055435;28;20566;-64
2021/04/12 02:04:47;;;;;;;0.30;0.30;;;;;;;17.14;32.66;96560.94;5065989;28;20589;-61
2021/04/12 02:07:28;;;;;;;0.40;0.40;;;;;;;17.13;32.34;96564.69;5065233;28;20422;-62
2021/04/12 02:09:59;;;;;;;0.17;0.17;;;;;;;17.10;32.21;96565.22;5066217;28;20049;-62
2021/04/12 02:13:10;;;;;;;0.30;0.30;;;;;;;17.10;32.41;96566.03;5064408;28;20040;-62
2021/04/12 02:15:47;;;;;;;0.30;0.30;;;;;;;17.09;32.50;96569.81;5041792;28;20522;-61
2021/04/12 02:18:35;;;;;;;0.20;0.20;;;;;;;17.08;32.24;96567.38;5066457;28;20086;-61
2021/04/12 02:21:06;;;;;;;0.20;0.20;;;;;;;17.08;32.45;96578.19;5065971;28;20052;-62
2021/04/12 02:23:41;;;;;;;0.20;0.20;;;;;;;17.07;32.40;96573.84;5065148;28;20083;-62
2021/04/12 02:26:29;;;;;;;0.20;0.20;;;;;;;17.06;32.43;96570.31;5064585;28;20154;-62
2021/04/12 02:29:00;;;;;;;0.20;0.20;;;;;;;17.05;32.53;96571.41;5064325;28;20136;-62
2021/04/12 02:31:39;;;;;;;0.20;0.20;;;;;;;17.02;32.21;96569.19;5063748;28;20067;-62
2021/04/12 02:34:20;;;;;;;0.25;0.25;;;;;;;17.02;32.37;96575.44;5064211;28;20048;-62
2021/04/12 02:37:01;;;;;;;0.35;0.35;;;;;;;17.02;32.44;96574.59;5049805;28;20412;-61
2021/04/12 02:39:49;;;;;;;0.20;0.20;;;;;;;17.02;32.21;96574.59;5064368;28;20048;-61
2021/04/12 02:42:52;;;;;;;0.20;0.20;;;;;;;16.98;32.39;96574.31;5051049;28;20230;-61
2021/04/12 02:45:43;;;;;;;0.20;0.20;;;;;;;16.96;32.38;96572.91;5065763;28;20067;-61
2021/04/12 02:48:30;;;;;;;0.30;0.30;;;;;;;16.97;32.21;96566.44;5064298;28;20063;-61
2021/04/12 02:51:03;;;;;;;0.30;0.30;;;;;;;16.96;32.01;96571.06;5080736;28;20083;-62
2021/04/12 02:53:50;;;;;;;0.10;0.10;;;;;;;16.95;32.17;96579.41;5084562;28;20047;-62
2021/04/12 02:56:52;;;;;;;0.10;0.10;;;;;;;16.94;32.26;96572.34;5086095;28;20827;-62
2021/04/12 02:59:35;;;;;;;0.20;0.20;;;;;;;16.93;32.17;96571.53;5086320;28;20101;-61
2021/04/12 03:02:24;;;;;;;0.20;0.20;;;;;;;16.92;32.30;96577.19;5081877;28;20147;-62
2021/04/12 03:05:11;;;;;;;0.30;0.30;;;;;;;16.91;32.35;96570.19;5084926;28;20047;-62
2021/04/12 03:08:04;;;;;;;0.20;0.20;;;;;;;16.89;32.18;96575.03;5085603;28;20511;-61
2021/04/12 03:11:04;;;;;;;0.15;0.15;;;;;;;16.88;32.38;96568.81;5085960;28;20070;-62
2021/04/12 03:14:07;;;;;;;0.20;0.20;;;;;;;16.86;32.23;96565.53;5084340;28;20065;-62
2021/04/12 03:17:10;;;;;;;0.20;0.20;;;;;;;16.85;32.39;96563.88;5069790;28;20117;-62
2021/04/12 03:19:57;;;;;;;0.20;0.20;;;;;;;16.84;32.19;96574.97;5085125;28;20530;-61
2021/04/12 03:22:38;;;;;;;0.30;0.30;;;;;;;16.83;32.47;96571.44;5085337;28;20565;-62
2021/04/12 03:25:10;;;;;;;0.28;0.28;;;;;;;16.83;32.43;96571.44;5084116;28;20130;-62
2021/04/12 03:28:13;;;;;;;0.20;0.20;;;;;;;16.79;32.13;96570.28;5083793;28;20044;-62
2021/04/12 03:31:20;;;;;;;0.20;0.20;;;;;;;16.79;32.40;96578.41;5085373;28;20109;-62
2021/04/12 03:34:10;;;;;;;0.30;0.30;;;;;;;16.77;32.46;96570.56;5046684;28;20056;-62
2021/04/12 03:36:38;;;;;;;0.20;0.20;;;;;;;16.77;32.17;96578.69;5067225;28;20049;-62
2021/04/12 03:39:11;;;;;;;0.13;0.13;;;;;;;16.76;32.40;96582.44;5065161;28;20045;-63
2021/04/12 03:42:01;;;;;;;0.20;0.20;;;;;;;16.76;32.46;96576.22;5063473;28;20041;-62
2021/04/12 03:44:33;;;;;;;0.30;0.30;;;;;;;16.75;32.28;96585.38;5063758;28;20534;-62
2021/04/12 03:47:39;;;;;;;0.30;0.30;;;;;;;16.74;32.22;96572.94;5065173;28;20118;-62
2021/04/12 03:50:23;;;;;;;;;;;;;;;16.73;32.41;96571.28;5073297;28;20526;-62
2021/04/12 03:52:57;;;;;;;0.20;0.20;;;;;;;16.69;32.53;96572.88;5085569;28;20297;-63
2021/04/12 03:55:54;;;;;;;0.10;0.10;;;;;;;16.67;32.25;96573.16;5083463;28;20060;-63
2021/04/12 03:58:44;;;;;;;0.20;0.20;;;;;;;16.66;32.36;96576.91;5085760;28;20058;-63
2021/04/12 04:01:45;;;;;;;0.10;0.10;;;;;;;16.66;32.47;96576.09;5084963;28;20409;-61
2021/04/12 04:04:34;;;;;;;0.10;0.10;;;;;;;16.65;32.33;96569.03;5022829;28;20104;-63
2021/04/12 04:07:24;;;;;;;0.20;0.20;;;;;;;16.64;32.40;96570.13;5079351;28;20048;-62
2021/04/12 04:10:17;;;;;;;0.20;0.20;;;;;;;16.62;32.51;96579.28;5085912;28;20048;-63
2021/04/12 04:13:09;;;;;;;0.15;0.15;;;;;;;16.61;32.33;96574.97;5085448;28;20036;-62
2021/04/12 04:16:08;;;;;;;0.17;0.10;;;;;;;16.61;32.37;96572.28;5079445;28;20058;-62
2021/04/12 04:18:35;;;;;;;0.20;0.20;;;;;;;16.60;32.46;96575.22;5088785;28;20848;-62
2021/04/12 04:21:00;;;;;;;0.10;0.10;;;;;;;16.60;32.50;96584.13;5087287;28;20039;-61
2021/04/12 04:24:03;;;;;;;0.10;0.10;;;;;;;16.58;32.54;96588.97;5088704;28;20052;-63
2021/04/12 04:27:08;;;;;;;0.10;0.10;;;;;;;16.57;32.40;96583.84;5088622;28;20056;-62
2021/04/12 04:30:02;;;;;;;0.20;0.20;;;;;;;16.56;32.51;96588.41;5047735;28;20700;-61
2021/04/12 04:32:31;;;;;;;0.20;0.20;;;;;;;16.56;32.59;96593.81;5088606;28;20059;-62
2021/04/12 04:35:17;;;;;;;0.22;0.22;;;;;;;16.55;32.58;96599.50;5087343;28;20105;-61
2021/04/12 04:38:31;;;;;;;0.10;0.10;;;;;;;16.55;32.29;96602.22;5057211;28;20410;-61
2021/04/12 04:41:35;;;;;;;0.43;0.30;;;;;;;16.53;32.70;96605.16;5086643;28;20177;-61
2021/04/12 04:44:31;;;;;;;0.13;0.13;;;;;;;16.52;32.63;96595.44;5086726;28;20129;-63
2021/04/12 04:47:18;;;;;;;0.10;0.10;;;;;;;16.51;32.21;96601.88;5088214;28;20540;-62
2021/04/12 04:49:59;;;;;;;0.10;0.10;;;;;;;16.49;32.66;96604.03;5081983;28;20472;-61
2021/04/12 04:52:57;;;;;;;0.10;0.10;;;;;;;16.49;32.85;96604.03;5050641;28;20140;-62
2021/04/12 04:55:43;;;;;;;0.20;0.20;;;;;;;16.49;32.38;96605.91;5069366;28;20052;-62
2021/04/12 04:58:22;;;;;;;0.17;0.17;;;;;;;16.49;32.34;96609.44;5064698;28;20060;-62
2021/04/12 05:01:09;;;;;;;0.10;0.10;;;;;;;16.46;32.73;96609.94;5066415;28;20048;-62
2021/04/12 05:04:07;;;;;;;0.10;0.10;;;;;;;16.46;32.50;96609.13;5065881;28;20135;-61
2021/04/12 05:07:16;;;;;;;0.10;0.10;;;;;;;16.45;32.66;96623.72;5066837;28;20145;-62
2021/04/12 05:10:10;;;;;;;0.38;0.10;;;;;;;16.43;32.67;96615.84;5069030;28;20466;-62
2021/04/12 05:13:10;;;;;;;0.20;0.20;;;;;;;16.44;32.84;96625.59;5052753;28;20164;-62
2021/04/12 05:16:20;;;;;;;0.20;0.10;;;;;;;16.41;32.51;96634.19;5022230;28;20051;-62
2021/04/12 05:19:15;;;;;;;0.22;0.22;;;;;;;16.41;32.52;96640.41;5045562;28;20109;-62
2021/04/12 05:22:04;;;;;;;0.10;0.10;;;;;;;16.40;32.75;96632.59;5038215;28;20052;-62
2021/04/12 05:24:51;;;;;;;0.10;0.10;;;;;;;16.40;32.79;96643.41;5051246;28;20052;-61
2021/04/12 05:27:26;;;;;;;0.20;0.20;;;;;;;16.39;32.43;96647.97;5066947;28;20041;-59
2021/04/12 05:30:10;;;;;;;0.22;0.20;;;;;;;16.38;32.68;96650.94;5067120;28;20173;-62
2021/04/12 05:32:58;;;;;;;0.20;0.20;;;;;;;16.37;32.81;96646.59;5066447;28;20062;-62
2021/04/12 05:35:44;;;;;;;0.20;0.20;;;;;;;16.36;32.54;96651.19;5065767;28;20048;-60
2021/04/12 05:38:28;;;;;;;0.80;0.20;;;;;;;16.36;32.50;96653.06;5065492;28;20044;-62
2021/04/12 05:41:19;;;;;;;0.30;0.30;;;;;;;16.37;32.80;96649.28;5066534;28;20056;-61
2021/04/12 05:44:16;;;;;;;0.38;0.35;;;;;;;16.36;32.95;96655.78;5051304;28;20048;-61
2021/04/12 05:47:10;;;;;;;3.95;3.55;;;;;;;16.35;32.98;96660.34;5065401;28;20068;-62
2021/04/12 05:49:48;;;;;;;3.03;2.83;;;;;;;16.35;32.95;96659.53;5055338;28;20079;-62
2021/04/12 05:52:41;;;;;;;2.00;1.75;;;;;;;16.33;33.23;96665.19;5072001;28;20465;-60
2021/04/12 05:55:09;;;;;;;1.95;1.63;;;;;;;16.35;33.05;96667.63;5063339;28;20075;-59
2021/04/12 05:57:54;;;;;;;2.97;1.90;;;;;;;16.34;32.88;96676.84;5065629;28;20415;-62
2021/04/12 06:00:58;;;;;;;1.93;1.83;;;;;;;16.34;32.94;96677.63;5067197;28;20582;-62
2021/04/12 06:03:38;;;;;;;2.10;2.00;;;;;;;16.35;32.84;96671.16;5066394;28;20060;-59
2021/04/12 06:06:30;;;;;;;2.00;1.90;;;;;;;16.36;32.63;96689.03;5064740;28;20414;-62
2021/04/12 06:09:16;;;;;;;1.95;1.85;;;;;;;16.38;33.04;96686.88;5049018;28;20112;-60
2021/04/12 06:12:30;;;;;;;2.70;2.50;;;;;;;16.40;32.70;96681.25;5064023;28;20465;-61
2021/04/12 06:15:14;;;;;;;2.50;2.38;;;;;;;16.43;32.74;96688.84;5052247;28;20052;-61
2021/04/12 06:17:54;;;;;;;4.78;4.28;;;;;;;16.47;33.00;96695.38;5066279;28;20047;-62
2021/04/12 06:20:33;;;;;;;3.25;2.85;;;;;;;16.49;33.06;96681.63;5065472;28;20040;-62
2021/04/12 06:23:27;;;;;;;3.90;3.17;;;;;;;16.54;32.71;96682.50;5066895;28;20052;-62
2021/04/12 06:26:05;;;;;;;2.75;2.55;;;;;;;16.60;32.83;96686.91;5023216;28;20067;-61
2021/04/12 06:28:46;;;;;;;3.45;3.15;;;;;;;16.66;32.59;96692.41;5072771;28;20566;-59
2021/04/12 06:31:32;;;;;;;3.67;3.40;;;;;;;16.72;32.93;96689.50;5067036;28;20151;-61
2021/04/12 06:34:35;;;;;;;3.85;3.55;;;;;;;16.79;32.83;96690.16;5064881;28;20040;-62
2021/04/12 06:37:57;;;;;;;5.28;4.90;;;;;;;16.90;32.74;96695.69;5047324;28;20055;-60
2021/04/12 06:41:13;;;;;;;5.50;5.00;;;;;;;16.97;32.63;96691.72;5005961;28;20753;-60
2021/04/12 06:44:00;;;;;;;4.65;4.35;;;;;;;17.07;32.59;96690.19;4962849;28;20151;-61
2021/04/12 06:46:47;;;;;;;4.30;4.00;;;;;;;17.16;32.21;96694.91;5054368;28;20083;-60
2021/04/12 06:49:25;;;;;;;4.30;4.00;;;;;;;17.26;32.18;96696.13;5053926;28;20152;-59
2021/04/12 06:52:23;;;;;;;5.45;3.60;;;;;;;17.36;32.42;96698.91;5087246;28;20048;-60
2021/04/12 06:55:18;;;;;;;3.13;2.92;;;;;;;17.48;32.33;96717.72;5084796;28;20066;-61
2021/04/12 06:58:17;;;;;;;5.22;4.78;;;;;;;17.61;32.27;96703.75;5061912;28;20048;-61
2021/04/12 07:01:05;;;;;;;5.82;5.22;;;;;;;17.74;32.30;96707.97;5065169;28;20732;-61
2021/04/12 07:03:52;;;;;;;5.28;4.38;;;;;;;17.86;32.29;96707.81;5044956;28;20053;-62
2021/04/12 07:06:58;;;;;;;4.63;4.10;;;;;;;18.01;32.30;96706.06;5054794;28;20063;-61
2021/04/12 07:09:41;;;;;;;4.30;3.83;;;;;;;18.16;32.27;96708.06;5064643;28;20756;-61
2021/04/12 07:12:17;;;;;;;4.93;4.03;;;;;;;18.31;32.32;96704.63;5064776;28;20052;-60
2021/04/12 07:15:05;;;;;;;4.25;3.42;;;;;;;18.48;31.95;96709.09;5046984;28;20052;-62
2021/04/12 07:17:30;;;;;;;5.72;3.47;;;;;;;18.63;32.17;96710.00;5045489;28;20079;-62
2021/04/12 07:20:23;;;;;;;3.42;3.13;;;;;;;18.77;32.11;96713.03;5045509;28;20080;-62
2021/04/12 07:23:11;;;;;;;4.05;3.30;;;;;;;18.95;31.76;96717.25;5030645;28;20052;-61
2021/04/12 07:25:55;;;;;;;3.42;3.13;;;;;;;19.11;31.46;96712.66;5062291;28;20098;-61
2021/04/12 07:28:35;;;;;;;4.00;3.30;;;;;;;19.28;31.43;96717.88;5065798;28;20139;-61
2021/04/12 07:31:38;;;;;;;6.45;2.92;;;;;;;19.44;31.09;96716.84;5064571;28;20040;-62
2021/04/12 07:34:31;;;;;;;5.22;2.78;;;;;;;19.63;30.96;96721.78;5065271;28;20048;-61
2021/04/12 07:37:21;;;;;;;4.10;2.60;;;;;;;19.80;30.92;96724.28;5063325;28;20055;-61
2021/04/12 07:40:06;;;;;;;4.78;2.60;;;;;;;19.97;30.89;96734.91;5064874;28;20415;-62
2021/04/12 07:43:02;;;;;;;2.35;2.15;;;;;;;20.16;30.42;96729.72;5065596;28;20044;-60
2021/04/12 07:45:53;;;;;;;4.72;2.40;;;;;;;20.35;30.47;96735.44;5062966;28;20091;-60
2021/04/12 07:48:49;;;;;;;2.58;2.05;;;;;;;20.54;30.12;96747.41;5047836;28;20061;-62
2021/04/12 07:51:24;;;;;;;3.25;1.92;;;;;;;20.71;29.86;96746.31;5086579;28;20051;-63
2021/04/12 07:54:28;;;;;;;2.78;2.00;;;;;;;20.86;30.05;96746.28;5089979;28;20056;-61
2021/04/12 07:57:08;;;;;;;3.45;1.98;;;;;;;21.02;29.76;96739.69;5071778;28;20087;-62
2021/04/12 08:00:08;;;;;;;2.83;2.25;;;;;;;21.18;29.66;96737.69;5064511;28;20055;-62
2021/04/12 08:02:45;;;;;;;6.68;2.70;;;;;;;21.33;29.50;96745.00;5058623;28;20040;-61
2021/04/12 08:05:32;;;;;;;3.67;3.30;;;;;;;21.47;29.11;96738.97;5065466;28;20053;-61
2021/04/12 08:08:12;;;;;;;4.10;3.70;;;;;;;21.59;28.87;96740.25;5067937;28;20056;-62
2021/04/12 08:11:09;;;;;;;4.38;3.03;;;;;;;21.72;28.77;96741.53;5067283;28;20467;-61
2021/04/12 08:13:53;;;;;;;3.03;2.45;;;;;;;21.84;28.52;96750.19;5067698;28;20157;-61
2021/04/12 08:16:26;;;;;;;4.63;2.60;;;;;;;21.95;28.49;96755.59;5069459;28;20395;-60
2021/04/12 08:19:02;;;;;;;3.25;1.92;;;;;;;22.06;28.01;96748.94;5067010;28;20317;-59
2021/04/12 08:21:59;;;;;;;3.08;2.20;;;;;;;22.15;27.94;96752.72;5049953;28;20533;-60
2021/04/12 08:25:29;;;;;;;4.50;2.05;;;;;;;22.27;28.01;96757.81;5068537;28;20053;-60
2021/04/12 08:28:01;;;;;;;2.60;1.73;;;;;;;22.37;27.61;96757.72;5014286;28;20050;-59
2021/04/12 08:30:52;;;;;;;1.70;1.60;;;;;;;22.44;27.51;96751.94;4994131;28;20665;-60
2021/04/12 08:33:55;;;;;;;1.60;1.50;;;;;;;22.53;27.17;96763.06;5056502;28;20098;-59
2021/04/12 08:36:30;;;;;;;1.75;1.25;;;;;;;22.61;27.10;96748.78;5067943;28;20059;-58
2021/04/12 08:39:26;;;;;;;1.63;1.42;;;;;;;22.67;27.17;96744.91;5066965;28;20074;-60
2021/04/12 08:42:33;;;;;;;1.40;1.30;;;;;;;22.74;26.90;96750.03;5055464;28;20492;-58
2021/04/12 08:45:40;;;;;;;3.22;1.45;;;;;;;22.80;26.97;96746.16;5066133;28;20036;-59
2021/04/12 08:48:27;;;;;;;7.10;1.38;;;;;;;22.85;27.01;96757.00;5066496;28;20094;-58
2021/04/12 08:50:57;;;;;;;2.35;1.33;;;;;;;22.91;26.57;96753.13;4976950;28;20066;-58
2021/04/12 08:53:41;;;;;;;3.17;1.20;;;;;;;22.96;26.45;96760.44;4987792;28;20460;-60
2021/04/12 08:56:27;;;;;;;1.23;1.00;;;;;;;23.02;26.51;96762.03;4973229;28;20059;-59
2021/04/12 08:59:18;;;;;;;1.88;1.25;;;;;;;23.08;26.16;96765.53;4967991;28;20130;-59
2021/04/12 09:02:14;;;;;;;1.58;1.35;;;;;;;23.13;26.37;96766.28;4968991;28;20053;-60
2021/04/12 09:05:24;;;;;;;3.13;1.10;;;;;;;23.17;26.21;96769.25;4970518;28;20064;-59
2021/04/12 09:08:11;;;;;;;2.00;1.13;;;;;;;23.22;26.13;96771.94;4980219;28;20106;-59
2021/04/12 09:10:45;;;;;;;1.08;0.90;;;;;;;23.24;26.01;96775.19;4976834;28;20057;-60
2021/04/12 09:13:17;;;;;;;1.08;0.90;;;;;;;23.28;26.02;96770.78;4985957;28;20750;-60
2021/04/12 09:16:20;;;;;;;1.58;1.00;;;;;;;23.29;25.94;96764.19;4975777;28;20042;-59
2021/04/12 09:19:22;;;;;;;2.45;0.98;;;;;;;23.33;25.94;96769.91;4984825;28;20513;-59
2021/04/12 09:22:12;;;;;;;9.57;1.00;;;;;;;23.37;25.78;96763.53;4986712;28;20154;-59
2021/04/12 09:25:08;;;;;;;1.27;0.93;;;;;;;23.39;25.77;96777.72;4985316;28;20069;-60
2021/04/12 09:27:36;;;;;;;;;;;;;;;23.40;26.12;96779.34;4985067;28;20051;-60
2021/04/12 09:30:02;;;;;;;1.30;0.90;;;;;;;23.42;25.56;96782.59;4985908;28;20020;-60
2021/04/12 09:32:50;;;;;;;1.98;1.00;;;;;;;23.44;25.64;96779.59;4983729;28;20137;-59
2021/04/12 09:35:36;;;;;;;0.90;0.60;;;;;;;23.46;25.33;96788.31;4970994;28;20050;-61
2021/04/12 09:38:23;;;;;;;0.98;0.82;;;;;;;23.44;25.30;96785.84;4987313;28;20073;-58
2021/04/12 09:41:12;;;;;;;0.73;0.73;;;;;;;23.43;25.48;96789.72;4988043;28;20583;-59
2021/04/12 09:44:15;;;;;;;1.65;0.80;;;;;;;23.40;25.21;96784.00;4968654;28;20062;-60
2021/04/12 09:47:06;;;;;;;0.80;0.80;;;;;;;23.40;25.56;96787.53;4983159;28;20374;-60
2021/04/12 09:49:34;;;;;;;1.38;0.85;;;;;;;23.41;24.99;96793.84;4984836;28;20063;-60
2021/04/12 09:52:21;;;;;;;1.35;0.82;;;;;;;23.39;25.20;96794.13;4985445;28;20053;-61
2021/04/12 09:55:18;;;;;;;2.60;1.00;;;;;;;23.34;25.27;96798.84;4986421;28;20054;-59
2021/04/12 09:58:35;;;;;;;3.10;0.88;;;;;;;23.33;25.09;96791.75;4967604;28;20057;-57
2021/04/12 10:01:30;;;;;;;4.57;0.90;;;;;;;23.32;25.00;96793.69;4971491;28;20061;-58
2021/04/12 10:04:10;;;;;;;4.47;0.90;;;;;;;23.33;25.15;96795.31;4986225;28;20682;-59
2021/04/12 10:06:54;;;;;;;3.50;1.30;;;;;;;23.32;24.86;96790.13;4984822;28;20792;-59
2021/04/12 10:09:42;;;;;;;3.40;1.55;;;;;;;23.29;25.11;96779.78;4984471;28;20054;-61
2021/04/12 10:12:43;;;;;;;5.00;2.00;;;;;;;23.27;24.79;96786.34;4984428;28;20112;-60
2021/04/12 10:15:29;;;;;;;6.53;2.25;;;;;;;23.27;24.89;96789.06;4997145;28;20512;-60
2021/04/12 10:18:28;;;;;;;6.32;2.20;;;;;;;23.26;24.97;96789.38;4983665;28;20085;-60
2021/04/12 10:20:57;;;;;;;4.53;2.35;;;;;;;23.26;25.16;96792.13;4985302;28;20056;-59
2021/04/12 10:23:27;;;;;;;5.57;2.53;;;;;;;23.25;24.90;96782.28;4982652;28;20065;-59
2021/04/12 10:26:11;;;;;;;6.60;2.22;;;;;;;23.26;25.11;96789.38;4982985;28;20148;-60
2021/04/12 10:28:48;;;;;;;12.88;11.35;;;;;;;23.25;25.07;96787.75;4984302;28;20062;-59
2021/04/12 10:31:29;;;;;;;13.07;11.50;;;;;;;23.22;25.14;96774.69;4982828;28;20088;-59
2021/04/12 10:34:05;;;;;;;28.80;26.00;;;;;;;23.20;24.99;96785.88;4984016;28;20080;-60
2021/04/12 10:36:44;;;;;;;18.02;16.10;;;;;;;23.19;25.34;96781.50;4983030;28;20077;-61
2021/04/12 10:39:14;;;;;;;15.10;13.60;;;;;;;23.18;24.75;96782.63;4980919;28;20088;-60
2021/04/12 10:41:45;;;;;;;13.27;12.05;;;;;;;23.15;25.32;96785.13;4981852;28;20045;-60
2021/04/12 10:44:12;;;;;;;12.52;11.20;;;;;;;23.12;25.24;96780.25;4981940;28;21193;-61
2021/04/12 10:46:52;;;;;;;11.27;10.23;;;;;;;23.11;25.30;96775.88;4980172;28;20059;-61
2021/04/12 10:49:51;;;;;;;11.00;9.38;;;;;;;23.06;25.21;96772.09;4965371;28;20577;-61
2021/04/12 10:52:44;;;;;;;10.40;8.90;;;;;;;23.10;25.00;96769.59;4979219;28;20065;-61
2021/04/12 10:55:19;;;;;;;9.63;8.63;;;;;;;23.08;25.02;96766.34;4968764;28;20058;-61
2021/04/12 10:57:49;;;;;;;8.48;7.63;;;;;;;23.06;25.12;96774.84;4983147;28;20053;-61
2021/04/12 11:00:43;;;;;;;8.18;7.43;;;;;;;23.04;25.05;96768.84;4983722;28;20050;-59
2021/04/12 11:03:25;;;;;;;9.02;6.90;;;;;;;23.03;24.63;96780.88;4984465;28;20529;-59
2021/04/12 11:06:20;;;;;;;7.40;6.80;;;;;;;23.03;24.96;96778.16;4981608;28;20082;-59
2021/04/12 11:08:48;;;;;;;7.82;6.53;;;;;;;23.04;24.97;96777.03;4982756;28;20054;-58
2021/04/12 11:11:24;;;;;;;6.30;5.78;;;;;;;23.02;25.06;96773.78;4983622;28;20050;-57
2021/04/12 11:14:19;;;;;;;6.60;5.72;;;;;;;23.01;24.76;96772.16;4981335;28;20053;-60
2021/04/12 11:17:07;;;;;;;5.88;5.10;;;;;;;23.01;24.61;96772.16;4981570;28;20050;-61
2021/04/12 11:19:54;;;;;;;5.82;5.15;;;;;;;23.02;25.12;96775.72;4971227;28;20056;-60
2021/04/12 11:22:29;;;;;;;5.05;4.63;;;;;;;23.01;24.50;96776.81;4973213;28;20081;-60
2021/04/12 11:25:15;;;;;;;5.43;4.93;;;;;;;23.00;24.55;96784.16;4988154;28;20108;-60
2021/04/12 11:27:59;;;;;;;4.95;4.45;;;;;;;23.01;24.90;96782.28;4988679;28;20038;-60
2021/04/12 11:31:06;;;;;;;4.65;4.25;;;;;;;22.99;24.78;96784.47;4994683;28;20054;-59
2021/04/12 11:33:40;;;;;;;4.60;3.88;;;;;;;22.98;24.81;96789.09;4952976;28;20050;-59
2021/04/12 11:36:11;;;;;;;4.07;3.78;;;;;;;23.00;24.66;96781.41;4988288;28;20584;-60
2021/04/12 11:39:03;;;;;;;3.72;3.42;;;;;;;22.99;24.72;96785.28;4988098;28;20061;-61
2021/04/12 11:41:50;;;;;;;4.40;3.83;;;;;;;23.00;24.76;96786.09;4988076;28;20165;-61
2021/04/12 11:44:25;;;;;;;3.90;3.50;;;;;;;23.01;24.41;96782.28;4990015;28;20405;-60
2021/04/12 11:47:06;;;;;;;3.50;3.20;;;;;;;22.99;24.61;96785.28;4974282;28;20050;-61
2021/04/12 11:49:49;;;;;;;3.03;2.80;;;;;;;23.00;24.69;96783.34;5008858;28;20495;-60
2021/04/12 11:52:24;;;;;;;3.42;2.92;;;;;;;22.99;24.65;96792.66;5009342;28;20081;-60
2021/04/12 11:55:05;;;;;;;3.22;2.95;;;;;;;22.99;24.73;96795.41;5008878;28;20141;-61
2021/04/12 11:57:50;;;;;;;3.58;2.80;;;;;;;22.98;24.62;96780.09;4989577;28;20046;-61
2021/04/12 12:00:20;;;;;;;3.38;3.08;;;;;;;22.99;24.44;96788.00;4988853;28;20804;-60
2021/04/12 12:03:13;;;;;;;3.03;2.83;;;;;;;22.98;24.38;96800.03;4988137;28;20050;-61
2021/04/12 12:05:54;;;;;;;2.83;2.38;;;;;;;22.99;24.78;96801.66;4987019;28;20085;-62
2021/04/12 12:08:22;;;;;;;2.60;2.45;;;;;;;22.99;24.48;96798.13;4990580;28;20057;-62
2021/04/12 12:11:26;;;;;;;4.10;2.20;;;;;;;22.96;24.41;96794.03;4988444;28;20137;-60
2021/04/12 12:13:58;;;;;;;2.28;2.17;;;;;;;22.96;24.41;96799.50;4970429;28;20132;-61
2021/04/12 12:16:41;;;;;;;2.35;1.85;;;;;;;22.94;24.51;96793.50;4988059;28;20046;-61
2021/04/12 12:19:39;;;;;;;3.15;2.08;;;;;;;22.93;24.30;96797.34;4970726;28;20058;-62
2021/04/12 12:22:07;;;;;;;4.03;3.55;;;;;;;22.93;24.14;96802.81;4973488;28;20509;-60
2021/04/12 12:24:57;;;;;;;20.77;18.38;;;;;;;22.91;24.40;96813.22;4971826;28;20050;-61
2021/04/12 12:27:35;;;;;;;69.78;51.65;;;;;;;22.93;24.59;96802.00;4987554;28;20050;-62
2021/04/12 12:30:09;;;;;;;67.45;53.20;;;;;;;22.91;24.50;96817.88;4973645;28;20136;-60
2021/04/12 12:32:40;;;;;;;78.55;60.20;;;;;;;22.90;24.36;96819.78;4987093;28;20062;-60
2021/04/12 12:35:14;;;;;;;107.68;85.65;;;;;;;22.90;24.45;96810.75;4985241;28;20514;-60
2021/04/12 12:38:10;;;;;;;135.93;116.38;;;;;;;22.88;24.48;96824.69;4987618;28;20145;-60
2021/04/12 12:40:50;;;;;;;152.90;130.35;;;;;;;22.90;24.19;96824.44;4987217;28;20046;-60
2021/04/12 12:43:32;;;;;;;161.35;140.13;;;;;;;22.92;24.45;96814.84;4972858;28;20074;-60
2021/04/12 12:46:23;;;;;;;168.10;149.63;;;;;;;22.93;24.41;96816.47;4973354;28;20050;-60
2021/04/12 12:48:51;;;;;;;166.20;146.63;;;;;;;22.96;23.97;96818.63;4974877;28;20078;-60
2021/04/12 12:51:26;;;;;;;165.68;144.68;;;;;;;22.97;24.09;96825.72;4971834;28;20049;-60
2021/04/12 12:54:17;;;;;;;168.88;149.10;;;;;;;23.00;24.32;96822.41;4971712;28;20521;-60
2021/04/12 12:56:43;;;;;;;162.68;140.00;;;;;;;23.04;23.92;96834.41;4987394;28;20049;-60
2021/04/12 12:59:25;;;;;;;175.35;146.98;;;;;;;23.05;23.99;96827.84;4988087;28;20077;-60
2021/04/12 13:01:51;;;;;;;172.50;150.50;;;;;;;23.09;24.15;96828.09;4984465;28;20047;-60
2021/04/12 13:04:27;;;;;;;186.18;158.50;;;;;;;23.08;24.16;96822.91;4967964;28;20081;-60